sensor_id;sensor_type;location;lat;lon;timestamp;P1;durP1;ratioP1;P2;durP2;ratioP2
10191;SDS011;17580;50.850;4.504;2023-03-21T00:00:35;7.30;;;5.03;;
10191;SDS011;17580;50.850;4.504;2023-03-21T00:03:05;8.97;;;5.00;;
10191;SDS011;17580;50.850;4.504;2023-03-21T00:05:33;8.57;;;5.20;;
10191;SDS011;17580;50.850;4.504;2023-03-21T00:08:00;7.33;;;5.23;;
10191;SDS011;17580;50.850;4.504;2023-03-21T00:10:27;7.60;;;5.10;;
10191;SDS011;17580;50.850;4.504;2023-03-21T00:12:54;7.57;;;5.23;;
10191;SDS011;17580;50.850;4.504;2023-03-21T00:15:22;7.87;;;5.30;;
10191;SDS011;17580;50.850;4.504;2023-03-21T00:17:52;9.80;;;5.30;;
10191;SDS011;17580;50.850;4.504;2023-03-21T00:20:23;8.23;;;4.70;;
10191;SDS011;17580;50.850;4.504;2023-03-21T00:22:50;5.27;;;4.50;;
10191;SDS011;17580;50.850;4.504;2023-03-21T00:25:17;5.20;;;4.70;;
10191;SDS011;17580;50.850;4.504;2023-03-21T00:27:44;4.97;;;4.03;;
10191;SDS011;17580;50.850;4.504;2023-03-21T00:30:12;8.10;;;4.20;;
10191;SDS011;17580;50.850;4.504;2023-03-21T00:32:40;7.73;;;4.23;;
10191;SDS011;17580;50.850;4.504;2023-03-21T00:35:07;5.10;;;4.13;;
10191;SDS011;17580;50.850;4.504;2023-03-21T00:37:36;7.27;;;4.63;;
10191;SDS011;17580;50.850;4.504;2023-03-21T00:40:03;9.20;;;3.70;;
10191;SDS011;17580;50.850;4.504;2023-03-21T00:42:34;4.80;;;3.77;;
10191;SDS011;17580;50.850;4.504;2023-03-21T00:45:02;3.90;;;3.20;;
10191;SDS011;17580;50.850;4.504;2023-03-21T00:47:32;5.27;;;3.80;;
10191;SDS011;17580;50.850;4.504;2023-03-21T00:49:59;5.10;;;3.57;;
10191;SDS011;17580;50.850;4.504;2023-03-21T00:52:26;4.20;;;2.97;;
10191;SDS011;17580;50.850;4.504;2023-03-21T00:54:55;8.50;;;4.67;;
10191;SDS011;17580;50.850;4.504;2023-03-21T00:57:22;4.03;;;3.50;;
10191;SDS011;17580;50.850;4.504;2023-03-21T00:59:49;4.13;;;3.47;;
10191;SDS011;17580;50.850;4.504;2023-03-21T01:02:16;6.60;;;3.50;;
10191;SDS011;17580;50.850;4.504;2023-03-21T01:04:46;7.80;;;3.77;;
10191;SDS011;17580;50.850;4.504;2023-03-21T01:07:13;4.80;;;3.50;;
10191;SDS011;17580;50.850;4.504;2023-03-21T01:09:41;5.27;;;3.50;;
10191;SDS011;17580;50.850;4.504;2023-03-21T01:12:09;4.30;;;3.37;;
10191;SDS011;17580;50.850;4.504;2023-03-21T01:14:36;5.93;;;4.07;;
10191;SDS011;17580;50.850;4.504;2023-03-21T01:17:04;9.33;;;4.27;;
10191;SDS011;17580;50.850;4.504;2023-03-21T01:19:31;4.33;;;3.90;;
10191;SDS011;17580;50.850;4.504;2023-03-21T01:21:58;6.53;;;3.63;;
10191;SDS011;17580;50.850;4.504;2023-03-21T01:24:25;5.77;;;4.23;;
10191;SDS011;17580;50.850;4.504;2023-03-21T01:26:53;5.80;;;3.60;;
10191;SDS011;17580;50.850;4.504;2023-03-21T01:29:21;4.83;;;3.97;;
10191;SDS011;17580;50.850;4.504;2023-03-21T01:31:48;7.50;;;3.50;;
10191;SDS011;17580;50.850;4.504;2023-03-21T01:34:15;5.70;;;3.87;;
10191;SDS011;17580;50.850;4.504;2023-03-21T01:36:42;4.67;;;3.33;;
10191;SDS011;17580;50.850;4.504;2023-03-21T01:39:09;6.43;;;3.50;;
10191;SDS011;17580;50.850;4.504;2023-03-21T01:41:37;5.17;;;3.73;;
10191;SDS011;17580;50.850;4.504;2023-03-21T01:44:06;6.10;;;3.40;;
10191;SDS011;17580;50.850;4.504;2023-03-21T01:46:41;6.07;;;3.70;;
10191;SDS011;17580;50.850;4.504;2023-03-21T01:49:12;5.63;;;3.53;;
10191;SDS011;17580;50.850;4.504;2023-03-21T01:51:44;4.83;;;3.93;;
10191;SDS011;17580;50.850;4.504;2023-03-21T01:54:16;8.03;;;3.63;;
10191;SDS011;17580;50.850;4.504;2023-03-21T01:56:49;12.40;;;4.73;;
10191;SDS011;17580;50.850;4.504;2023-03-21T01:59:19;7.13;;;3.73;;
10191;SDS011;17580;50.850;4.504;2023-03-21T02:01:51;6.80;;;3.27;;
10191;SDS011;17580;50.850;4.504;2023-03-21T02:04:19;9.33;;;4.57;;
10191;SDS011;17580;50.850;4.504;2023-03-21T02:06:54;6.13;;;3.67;;
10191;SDS011;17580;50.850;4.504;2023-03-21T02:09:26;8.73;;;4.03;;
10191;SDS011;17580;50.850;4.504;2023-03-21T02:11:57;7.30;;;4.00;;
10191;SDS011;17580;50.850;4.504;2023-03-21T02:14:25;6.60;;;4.20;;
10191;SDS011;17580;50.850;4.504;2023-03-21T02:16:57;9.97;;;4.07;;
10191;SDS011;17580;50.850;4.504;2023-03-21T02:19:37;6.90;;;3.47;;
10191;SDS011;17580;50.850;4.504;2023-03-21T02:28:38;6.10;;;3.80;;
10191;SDS011;17580;50.850;4.504;2023-03-21T02:31:17;5.57;;;3.77;;
10191;SDS011;17580;50.850;4.504;2023-03-21T02:34:12;7.00;;;4.10;;
10191;SDS011;17580;50.850;4.504;2023-03-21T02:37:11;6.80;;;4.37;;
10191;SDS011;17580;50.850;4.504;2023-03-21T02:39:49;6.60;;;4.10;;
10191;SDS011;17580;50.850;4.504;2023-03-21T02:42:23;5.70;;;3.83;;
10191;SDS011;17580;50.850;4.504;2023-03-21T02:44:56;7.63;;;3.80;;
10191;SDS011;17580;50.850;4.504;2023-03-21T02:47:28;8.63;;;3.93;;
10191;SDS011;17580;50.850;4.504;2023-03-21T02:50:01;7.10;;;3.47;;
10191;SDS011;17580;50.850;4.504;2023-03-21T02:52:35;5.43;;;3.30;;
10191;SDS011;17580;50.850;4.504;2023-03-21T02:55:04;7.27;;;3.87;;
10191;SDS011;17580;50.850;4.504;2023-03-21T02:57:37;7.67;;;3.73;;
10191;SDS011;17580;50.850;4.504;2023-03-21T03:00:07;6.57;;;3.20;;
10191;SDS011;17580;50.850;4.504;2023-03-21T03:02:37;7.83;;;3.27;;
10191;SDS011;17580;50.850;4.504;2023-03-21T03:05:11;7.37;;;3.47;;
10191;SDS011;17580;50.850;4.504;2023-03-21T03:07:42;5.43;;;3.60;;
10191;SDS011;17580;50.850;4.504;2023-03-21T03:10:20;6.97;;;2.67;;
10191;SDS011;17580;50.850;4.504;2023-03-21T03:13:03;3.33;;;2.40;;
10191;SDS011;17580;50.850;4.504;2023-03-21T03:15:40;6.03;;;2.67;;
10191;SDS011;17580;50.850;4.504;2023-03-21T03:18:18;5.70;;;3.03;;
10191;SDS011;17580;50.850;4.504;2023-03-21T03:20:52;5.00;;;2.57;;
10191;SDS011;17580;50.850;4.504;2023-03-21T03:23:36;7.57;;;3.10;;
10191;SDS011;17580;50.850;4.504;2023-03-21T03:26:08;4.20;;;2.50;;
10191;SDS011;17580;50.850;4.504;2023-03-21T03:28:39;7.33;;;3.30;;
10191;SDS011;17580;50.850;4.504;2023-03-21T03:31:09;6.17;;;2.47;;
10191;SDS011;17580;50.850;4.504;2023-03-21T03:33:40;5.33;;;2.60;;
10191;SDS011;17580;50.850;4.504;2023-03-21T03:36:12;7.93;;;3.10;;
10191;SDS011;17580;50.850;4.504;2023-03-21T03:38:42;5.10;;;2.67;;
10191;SDS011;17580;50.850;4.504;2023-03-21T03:41:13;6.30;;;2.83;;
10191;SDS011;17580;50.850;4.504;2023-03-21T03:43:45;3.90;;;2.63;;
10191;SDS011;17580;50.850;4.504;2023-03-21T03:46:16;3.73;;;2.40;;
10191;SDS011;17580;50.850;4.504;2023-03-21T03:48:46;7.83;;;3.07;;
10191;SDS011;17580;50.850;4.504;2023-03-21T03:51:19;3.40;;;3.00;;
10191;SDS011;17580;50.850;4.504;2023-03-21T03:53:51;4.07;;;2.43;;
10191;SDS011;17580;50.850;4.504;2023-03-21T03:56:22;5.33;;;3.20;;
10191;SDS011;17580;50.850;4.504;2023-03-21T03:58:50;9.73;;;3.53;;
10191;SDS011;17580;50.850;4.504;2023-03-21T04:01:17;6.20;;;3.23;;
10191;SDS011;17580;50.850;4.504;2023-03-21T04:03:45;4.63;;;2.30;;
10191;SDS011;17580;50.850;4.504;2023-03-21T04:06:13;5.53;;;2.90;;
10191;SDS011;17580;50.850;4.504;2023-03-21T04:08:41;5.83;;;3.13;;
10191;SDS011;17580;50.850;4.504;2023-03-21T04:11:11;5.90;;;3.03;;
10191;SDS011;17580;50.850;4.504;2023-03-21T04:13:39;6.50;;;3.00;;
10191;SDS011;17580;50.850;4.504;2023-03-21T04:16:07;5.50;;;3.03;;
10191;SDS011;17580;50.850;4.504;2023-03-21T04:18:35;8.57;;;4.30;;
10191;SDS011;17580;50.850;4.504;2023-03-21T04:21:08;10.00;;;3.77;;
10191;SDS011;17580;50.850;4.504;2023-03-21T04:23:36;21.13;;;4.97;;
10191;SDS011;17580;50.850;4.504;2023-03-21T04:26:04;8.27;;;3.90;;
10191;SDS011;17580;50.850;4.504;2023-03-21T04:28:34;7.23;;;5.00;;
10191;SDS011;17580;50.850;4.504;2023-03-21T04:31:01;5.33;;;3.50;;
10191;SDS011;17580;50.850;4.504;2023-03-21T04:33:30;6.90;;;4.20;;
10191;SDS011;17580;50.850;4.504;2023-03-21T04:36:02;8.60;;;4.80;;
10191;SDS011;17580;50.850;4.504;2023-03-21T04:38:31;5.63;;;4.10;;
10191;SDS011;17580;50.850;4.504;2023-03-21T04:40:58;6.73;;;3.97;;
10191;SDS011;17580;50.850;4.504;2023-03-21T04:43:26;7.00;;;4.17;;
10191;SDS011;17580;50.850;4.504;2023-03-21T04:45:55;11.20;;;4.53;;
10191;SDS011;17580;50.850;4.504;2023-03-21T04:48:22;6.83;;;4.73;;
10191;SDS011;17580;50.850;4.504;2023-03-21T04:50:50;12.00;;;5.70;;
10191;SDS011;17580;50.850;4.504;2023-03-21T04:53:17;8.03;;;4.27;;
10191;SDS011;17580;50.850;4.504;2023-03-21T04:55:44;6.97;;;4.47;;
10191;SDS011;17580;50.850;4.504;2023-03-21T04:58:11;7.70;;;4.37;;
10191;SDS011;17580;50.850;4.504;2023-03-21T05:00:38;9.30;;;4.77;;
10191;SDS011;17580;50.850;4.504;2023-03-21T05:03:07;8.87;;;4.80;;
10191;SDS011;17580;50.850;4.504;2023-03-21T05:05:35;15.30;;;5.33;;
10191;SDS011;17580;50.850;4.504;2023-03-21T05:08:03;9.87;;;5.10;;
10191;SDS011;17580;50.850;4.504;2023-03-21T05:10:31;6.67;;;4.43;;
10191;SDS011;17580;50.850;4.504;2023-03-21T05:12:59;9.07;;;4.90;;
10191;SDS011;17580;50.850;4.504;2023-03-21T05:15:26;13.20;;;5.67;;
10191;SDS011;17580;50.850;4.504;2023-03-21T05:17:53;7.07;;;4.27;;
10191;SDS011;17580;50.850;4.504;2023-03-21T05:20:24;8.47;;;4.53;;
10191;SDS011;17580;50.850;4.504;2023-03-21T05:22:51;10.40;;;5.70;;
10191;SDS011;17580;50.850;4.504;2023-03-21T05:25:18;9.57;;;4.83;;
10191;SDS011;17580;50.850;4.504;2023-03-21T05:27:58;9.30;;;4.77;;
10191;SDS011;17580;50.850;4.504;2023-03-21T05:30:26;6.93;;;4.37;;
10191;SDS011;17580;50.850;4.504;2023-03-21T05:32:53;8.83;;;4.67;;
10191;SDS011;17580;50.850;4.504;2023-03-21T05:35:20;8.20;;;4.13;;
10191;SDS011;17580;50.850;4.504;2023-03-21T05:37:49;5.37;;;3.73;;
10191;SDS011;17580;50.850;4.504;2023-03-21T05:40:16;6.57;;;3.70;;
10191;SDS011;17580;50.850;4.504;2023-03-21T05:42:44;6.83;;;4.07;;
10191;SDS011;17580;50.850;4.504;2023-03-21T05:45:11;4.60;;;3.67;;
10191;SDS011;17580;50.850;4.504;2023-03-21T05:47:38;5.60;;;3.83;;
10191;SDS011;17580;50.850;4.504;2023-03-21T05:50:06;7.67;;;4.17;;
10191;SDS011;17580;50.850;4.504;2023-03-21T05:52:33;6.63;;;4.47;;
10191;SDS011;17580;50.850;4.504;2023-03-21T05:55:02;6.40;;;4.47;;
10191;SDS011;17580;50.850;4.504;2023-03-21T05:57:29;6.80;;;4.13;;
10191;SDS011;17580;50.850;4.504;2023-03-21T05:59:59;8.17;;;4.40;;
10191;SDS011;17580;50.850;4.504;2023-03-21T06:02:26;8.83;;;4.63;;
10191;SDS011;17580;50.850;4.504;2023-03-21T06:04:53;7.17;;;4.00;;
10191;SDS011;17580;50.850;4.504;2023-03-21T06:07:20;8.07;;;4.50;;
10191;SDS011;17580;50.850;4.504;2023-03-21T06:09:47;10.87;;;4.90;;
10191;SDS011;17580;50.850;4.504;2023-03-21T06:12:16;8.33;;;5.13;;
10191;SDS011;17580;50.850;4.504;2023-03-21T06:14:43;11.40;;;4.67;;
10191;SDS011;17580;50.850;4.504;2023-03-21T06:17:10;9.17;;;5.13;;
10191;SDS011;17580;50.850;4.504;2023-03-21T06:19:38;12.40;;;4.80;;
10191;SDS011;17580;50.850;4.504;2023-03-21T06:22:05;6.53;;;4.40;;
10191;SDS011;17580;50.850;4.504;2023-03-21T06:24:32;10.40;;;4.73;;
10191;SDS011;17580;50.850;4.504;2023-03-21T06:26:59;5.53;;;3.90;;
10191;SDS011;17580;50.850;4.504;2023-03-21T06:29:27;9.87;;;4.00;;
10191;SDS011;17580;50.850;4.504;2023-03-21T06:31:55;3.97;;;3.33;;
10191;SDS011;17580;50.850;4.504;2023-03-21T06:34:22;7.30;;;4.20;;
10191;SDS011;17580;50.850;4.504;2023-03-21T06:36:49;12.80;;;4.57;;
10191;SDS011;17580;50.850;4.504;2023-03-21T06:39:18;5.83;;;3.40;;
10191;SDS011;17580;50.850;4.504;2023-03-21T06:41:46;4.87;;;3.63;;
10191;SDS011;17580;50.850;4.504;2023-03-21T06:44:13;10.53;;;4.97;;
10191;SDS011;17580;50.850;4.504;2023-03-21T06:46:41;9.37;;;4.23;;
10191;SDS011;17580;50.850;4.504;2023-03-21T06:49:08;4.03;;;3.57;;
10191;SDS011;17580;50.850;4.504;2023-03-21T06:51:35;5.13;;;3.30;;
10191;SDS011;17580;50.850;4.504;2023-03-21T06:54:02;3.93;;;3.40;;
10191;SDS011;17580;50.850;4.504;2023-03-21T06:56:29;9.03;;;3.93;;
10191;SDS011;17580;50.850;4.504;2023-03-21T06:58:56;7.50;;;4.10;;
10191;SDS011;17580;50.850;4.504;2023-03-21T07:01:24;7.00;;;3.83;;
10191;SDS011;17580;50.850;4.504;2023-03-21T07:03:53;8.30;;;3.90;;
10191;SDS011;17580;50.850;4.504;2023-03-21T07:06:22;7.87;;;3.70;;
10191;SDS011;17580;50.850;4.504;2023-03-21T07:08:51;7.03;;;3.70;;
10191;SDS011;17580;50.850;4.504;2023-03-21T07:11:19;7.17;;;3.93;;
10191;SDS011;17580;50.850;4.504;2023-03-21T07:13:46;6.27;;;3.50;;
10191;SDS011;17580;50.850;4.504;2023-03-21T07:16:13;5.40;;;3.30;;
10191;SDS011;17580;50.850;4.504;2023-03-21T07:18:41;10.10;;;4.37;;
10191;SDS011;17580;50.850;4.504;2023-03-21T07:21:09;6.17;;;3.30;;
10191;SDS011;17580;50.850;4.504;2023-03-21T07:23:36;4.40;;;3.37;;
10191;SDS011;17580;50.850;4.504;2023-03-21T07:26:04;6.07;;;3.23;;
10191;SDS011;17580;50.850;4.504;2023-03-21T07:28:32;4.27;;;3.00;;
10191;SDS011;17580;50.850;4.504;2023-03-21T07:31:00;4.00;;;2.90;;
10191;SDS011;17580;50.850;4.504;2023-03-21T07:33:29;4.17;;;2.47;;
10191;SDS011;17580;50.850;4.504;2023-03-21T07:35:57;3.73;;;2.47;;
10191;SDS011;17580;50.850;4.504;2023-03-21T07:38:26;3.13;;;2.23;;
10191;SDS011;17580;50.850;4.504;2023-03-21T07:40:55;6.63;;;2.40;;
10191;SDS011;17580;50.850;4.504;2023-03-21T07:43:24;2.67;;;2.30;;
10191;SDS011;17580;50.850;4.504;2023-03-21T07:45:55;7.63;;;2.40;;
10191;SDS011;17580;50.850;4.504;2023-03-21T07:48:23;2.30;;;2.10;;
10191;SDS011;17580;50.850;4.504;2023-03-21T07:50:50;3.37;;;2.17;;
10191;SDS011;17580;50.850;4.504;2023-03-21T07:53:17;2.40;;;2.20;;
10191;SDS011;17580;50.850;4.504;2023-03-21T07:55:49;5.50;;;2.20;;
10191;SDS011;17580;50.850;4.504;2023-03-21T07:58:16;3.70;;;2.57;;
10191;SDS011;17580;50.850;4.504;2023-03-21T08:00:43;3.50;;;2.20;;
10191;SDS011;17580;50.850;4.504;2023-03-21T08:03:10;4.53;;;2.73;;
10191;SDS011;17580;50.850;4.504;2023-03-21T08:05:38;2.50;;;2.30;;
10191;SDS011;17580;50.850;4.504;2023-03-21T08:08:05;6.30;;;3.03;;
10191;SDS011;17580;50.850;4.504;2023-03-21T08:10:33;5.13;;;2.90;;
10191;SDS011;17580;50.850;4.504;2023-03-21T08:13:02;4.67;;;3.03;;
10191;SDS011;17580;50.850;4.504;2023-03-21T08:15:29;5.50;;;2.97;;
10191;SDS011;17580;50.850;4.504;2023-03-21T08:17:57;5.50;;;2.70;;
10191;SDS011;17580;50.850;4.504;2023-03-21T08:20:24;5.60;;;3.63;;
10191;SDS011;17580;50.850;4.504;2023-03-21T08:22:52;5.97;;;2.63;;
10191;SDS011;17580;50.850;4.504;2023-03-21T08:25:19;3.50;;;2.87;;
10191;SDS011;17580;50.850;4.504;2023-03-21T08:27:47;8.47;;;3.47;;
10191;SDS011;17580;50.850;4.504;2023-03-21T08:30:18;5.57;;;3.23;;
10191;SDS011;17580;50.850;4.504;2023-03-21T08:32:46;6.10;;;3.20;;
10191;SDS011;17580;50.850;4.504;2023-03-21T08:35:14;2.83;;;2.63;;
10191;SDS011;17580;50.850;4.504;2023-03-21T08:37:43;4.53;;;3.03;;
10191;SDS011;17580;50.850;4.504;2023-03-21T08:40:12;2.67;;;2.40;;
10191;SDS011;17580;50.850;4.504;2023-03-21T08:42:41;5.43;;;2.80;;
10191;SDS011;17580;50.850;4.504;2023-03-21T08:45:10;5.00;;;3.27;;
10191;SDS011;17580;50.850;4.504;2023-03-21T08:47:41;3.33;;;2.80;;
10191;SDS011;17580;50.850;4.504;2023-03-21T08:50:09;6.10;;;3.00;;
10191;SDS011;17580;50.850;4.504;2023-03-21T08:52:38;6.10;;;3.37;;
10191;SDS011;17580;50.850;4.504;2023-03-21T08:55:05;6.47;;;3.33;;
10191;SDS011;17580;50.850;4.504;2023-03-21T08:57:33;6.73;;;3.80;;
10191;SDS011;17580;50.850;4.504;2023-03-21T09:00:00;9.00;;;3.60;;
10191;SDS011;17580;50.850;4.504;2023-03-21T09:02:35;4.23;;;3.30;;
10191;SDS011;17580;50.850;4.504;2023-03-21T09:05:04;4.53;;;2.70;;
10191;SDS011;17580;50.850;4.504;2023-03-21T09:07:32;7.20;;;3.90;;
10191;SDS011;17580;50.850;4.504;2023-03-21T09:10:00;5.00;;;3.03;;
10191;SDS011;17580;50.850;4.504;2023-03-21T09:12:27;5.27;;;3.07;;
10191;SDS011;17580;50.850;4.504;2023-03-21T09:14:54;4.00;;;2.97;;
10191;SDS011;17580;50.850;4.504;2023-03-21T09:17:21;5.10;;;2.90;;
10191;SDS011;17580;50.850;4.504;2023-03-21T09:19:48;5.73;;;2.80;;
10191;SDS011;17580;50.850;4.504;2023-03-21T09:22:19;5.10;;;2.70;;
10191;SDS011;17580;50.850;4.504;2023-03-21T09:24:47;7.00;;;3.10;;
10191;SDS011;17580;50.850;4.504;2023-03-21T09:27:15;5.23;;;3.00;;
10191;SDS011;17580;50.850;4.504;2023-03-21T09:29:46;5.13;;;3.20;;
10191;SDS011;17580;50.850;4.504;2023-03-21T09:32:14;8.17;;;3.00;;
10191;SDS011;17580;50.850;4.504;2023-03-21T09:34:42;4.63;;;2.77;;
10191;SDS011;17580;50.850;4.504;2023-03-21T09:37:10;5.73;;;2.50;;
10191;SDS011;17580;50.850;4.504;2023-03-21T09:39:39;6.03;;;3.23;;
10191;SDS011;17580;50.850;4.504;2023-03-21T09:42:09;4.13;;;2.80;;
10191;SDS011;17580;50.850;4.504;2023-03-21T09:44:49;5.50;;;2.80;;
10191;SDS011;17580;50.850;4.504;2023-03-21T09:47:27;6.10;;;3.10;;
10191;SDS011;17580;50.850;4.504;2023-03-21T09:50:00;5.23;;;2.87;;
10191;SDS011;17580;50.850;4.504;2023-03-21T09:52:32;3.53;;;2.90;;
10191;SDS011;17580;50.850;4.504;2023-03-21T09:55:11;7.03;;;3.70;;
10191;SDS011;17580;50.850;4.504;2023-03-21T09:57:44;5.27;;;2.90;;
10191;SDS011;17580;50.850;4.504;2023-03-21T10:00:14;3.37;;;2.63;;
10191;SDS011;17580;50.850;4.504;2023-03-21T10:02:50;5.13;;;2.97;;
10191;SDS011;17580;50.850;4.504;2023-03-21T10:05:20;4.33;;;2.93;;
10191;SDS011;17580;50.850;4.504;2023-03-21T10:07:51;6.23;;;2.67;;
10191;SDS011;17580;50.850;4.504;2023-03-21T10:10:23;7.67;;;2.93;;
10191;SDS011;17580;50.850;4.504;2023-03-21T10:12:53;5.43;;;3.03;;
10191;SDS011;17580;50.850;4.504;2023-03-21T10:15:22;9.60;;;3.77;;
10191;SDS011;17580;50.850;4.504;2023-03-21T10:17:52;3.53;;;2.80;;
10191;SDS011;17580;50.850;4.504;2023-03-21T10:20:23;4.47;;;2.83;;
10191;SDS011;17580;50.850;4.504;2023-03-21T10:22:52;4.83;;;2.63;;
10191;SDS011;17580;50.850;4.504;2023-03-21T10:25:21;2.90;;;2.70;;
10191;SDS011;17580;50.850;4.504;2023-03-21T10:27:55;4.73;;;2.80;;
10191;SDS011;17580;50.850;4.504;2023-03-21T10:30:35;6.73;;;3.10;;
10191;SDS011;17580;50.850;4.504;2023-03-21T10:33:07;4.00;;;2.30;;
10191;SDS011;17580;50.850;4.504;2023-03-21T10:35:38;3.67;;;2.80;;
10191;SDS011;17580;50.850;4.504;2023-03-21T10:38:10;3.47;;;2.70;;
10191;SDS011;17580;50.850;4.504;2023-03-21T10:40:42;3.40;;;2.77;;
10191;SDS011;17580;50.850;4.504;2023-03-21T10:43:17;7.53;;;3.37;;
10191;SDS011;17580;50.850;4.504;2023-03-21T10:45:55;6.70;;;2.73;;
10191;SDS011;17580;50.850;4.504;2023-03-21T10:48:23;5.23;;;2.73;;
10191;SDS011;17580;50.850;4.504;2023-03-21T10:50:50;9.43;;;3.00;;
10191;SDS011;17580;50.850;4.504;2023-03-21T10:53:20;5.53;;;3.10;;
10191;SDS011;17580;50.850;4.504;2023-03-21T10:55:54;5.27;;;2.53;;
10191;SDS011;17580;50.850;4.504;2023-03-21T10:58:26;5.07;;;2.70;;
10191;SDS011;17580;50.850;4.504;2023-03-21T11:00:55;5.07;;;2.77;;
10191;SDS011;17580;50.850;4.504;2023-03-21T11:03:25;8.47;;;3.00;;
10191;SDS011;17580;50.850;4.504;2023-03-21T11:06:03;6.40;;;2.90;;
10191;SDS011;17580;50.850;4.504;2023-03-21T11:08:36;4.53;;;2.80;;
10191;SDS011;17580;50.850;4.504;2023-03-21T11:11:07;5.40;;;2.83;;
10191;SDS011;17580;50.850;4.504;2023-03-21T11:13:37;5.87;;;2.67;;
10191;SDS011;17580;50.850;4.504;2023-03-21T11:16:06;4.30;;;2.57;;
10191;SDS011;17580;50.850;4.504;2023-03-21T11:18:39;4.93;;;3.17;;
10191;SDS011;17580;50.850;4.504;2023-03-21T11:21:08;6.70;;;3.33;;
10191;SDS011;17580;50.850;4.504;2023-03-21T11:23:37;6.90;;;3.43;;
10191;SDS011;17580;50.850;4.504;2023-03-21T11:26:10;5.00;;;3.10;;
10191;SDS011;17580;50.850;4.504;2023-03-21T11:28:42;5.70;;;3.50;;
10191;SDS011;17580;50.850;4.504;2023-03-21T11:31:11;3.30;;;3.00;;
10191;SDS011;17580;50.850;4.504;2023-03-21T11:33:39;5.87;;;3.23;;
10191;SDS011;17580;50.850;4.504;2023-03-21T11:36:24;5.93;;;3.03;;
10191;SDS011;17580;50.850;4.504;2023-03-21T11:38:58;4.77;;;3.17;;
10191;SDS011;17580;50.850;4.504;2023-03-21T11:41:30;6.73;;;3.10;;
10191;SDS011;17580;50.850;4.504;2023-03-21T11:43:59;6.20;;;3.47;;
10191;SDS011;17580;50.850;4.504;2023-03-21T11:46:28;5.73;;;3.70;;
10191;SDS011;17580;50.850;4.504;2023-03-21T11:48:57;5.03;;;3.40;;
10191;SDS011;17580;50.850;4.504;2023-03-21T11:51:26;7.00;;;3.90;;
10191;SDS011;17580;50.850;4.504;2023-03-21T11:54:01;4.93;;;3.30;;
10191;SDS011;17580;50.850;4.504;2023-03-21T11:56:37;4.70;;;3.43;;
10191;SDS011;17580;50.850;4.504;2023-03-21T11:59:12;4.30;;;3.57;;
10191;SDS011;17580;50.850;4.504;2023-03-21T12:02:03;6.40;;;3.77;;
10191;SDS011;17580;50.850;4.504;2023-03-21T12:04:45;5.43;;;3.73;;
10191;SDS011;17580;50.850;4.504;2023-03-21T12:07:22;5.10;;;3.20;;
10191;SDS011;17580;50.850;4.504;2023-03-21T12:10:02;4.47;;;2.93;;
10191;SDS011;17580;50.850;4.504;2023-03-21T12:12:43;3.87;;;3.40;;
10191;SDS011;17580;50.850;4.504;2023-03-21T12:15:18;2.90;;;2.60;;
10191;SDS011;17580;50.850;4.504;2023-03-21T12:17:54;3.70;;;3.40;;
10191;SDS011;17580;50.850;4.504;2023-03-21T12:20:40;8.70;;;4.00;;
10191;SDS011;17580;50.850;4.504;2023-03-21T12:23:26;6.67;;;3.97;;
10191;SDS011;17580;50.850;4.504;2023-03-21T12:26:11;3.37;;;3.17;;
10191;SDS011;17580;50.850;4.504;2023-03-21T12:28:50;8.37;;;3.47;;
10191;SDS011;17580;50.850;4.504;2023-03-21T12:31:34;8.40;;;3.60;;
10191;SDS011;17580;50.850;4.504;2023-03-21T12:34:13;7.83;;;3.30;;
10191;SDS011;17580;50.850;4.504;2023-03-21T12:36:55;4.07;;;2.70;;
10191;SDS011;17580;50.850;4.504;2023-03-21T12:39:31;3.23;;;2.60;;
10191;SDS011;17580;50.850;4.504;2023-03-21T12:42:08;2.80;;;2.60;;
10191;SDS011;17580;50.850;4.504;2023-03-21T12:44:49;8.00;;;3.50;;
10191;SDS011;17580;50.850;4.504;2023-03-21T12:47:24;3.30;;;2.50;;
10191;SDS011;17580;50.850;4.504;2023-03-21T12:49:56;5.13;;;2.57;;
10191;SDS011;17580;50.850;4.504;2023-03-21T12:52:28;7.80;;;3.17;;
10191;SDS011;17580;50.850;4.504;2023-03-21T12:54:58;3.00;;;2.40;;
10191;SDS011;17580;50.850;4.504;2023-03-21T12:57:28;6.03;;;3.30;;
10191;SDS011;17580;50.850;4.504;2023-03-21T13:00:00;4.53;;;2.63;;
10191;SDS011;17580;50.850;4.504;2023-03-21T13:02:36;4.10;;;2.53;;
10191;SDS011;17580;50.850;4.504;2023-03-21T13:05:06;3.97;;;3.10;;
10191;SDS011;17580;50.850;4.504;2023-03-21T13:07:42;4.20;;;3.37;;
10191;SDS011;17580;50.850;4.504;2023-03-21T13:10:14;4.60;;;2.93;;
10191;SDS011;17580;50.850;4.504;2023-03-21T13:12:47;5.17;;;3.53;;
10191;SDS011;17580;50.850;4.504;2023-03-21T13:15:31;3.43;;;2.90;;
10191;SDS011;17580;50.850;4.504;2023-03-21T13:18:20;6.27;;;4.23;;
10191;SDS011;17580;50.850;4.504;2023-03-21T13:20:55;4.70;;;4.30;;
10191;SDS011;17580;50.850;4.504;2023-03-21T13:23:24;7.20;;;4.30;;
10191;SDS011;17580;50.850;4.504;2023-03-21T13:25:58;4.90;;;4.00;;
10191;SDS011;17580;50.850;4.504;2023-03-21T13:28:26;4.67;;;4.03;;
10191;SDS011;17580;50.850;4.504;2023-03-21T13:33:44;5.20;;;4.17;;
10191;SDS011;17580;50.850;4.504;2023-03-21T13:36:12;3.87;;;3.47;;
10191;SDS011;17580;50.850;4.504;2023-03-21T13:38:41;4.70;;;4.03;;
10191;SDS011;17580;50.850;4.504;2023-03-21T13:41:16;6.33;;;4.33;;
10191;SDS011;17580;50.850;4.504;2023-03-21T13:43:50;5.77;;;4.60;;
10191;SDS011;17580;50.850;4.504;2023-03-21T13:49:26;7.20;;;4.83;;
10191;SDS011;17580;50.850;4.504;2023-03-21T13:51:55;5.83;;;5.30;;
10191;SDS011;17580;50.850;4.504;2023-03-21T13:54:28;12.50;;;5.00;;
10191;SDS011;17580;50.850;4.504;2023-03-21T13:57:19;4.57;;;4.17;;
10191;SDS011;17580;50.850;4.504;2023-03-21T13:59:48;4.50;;;3.77;;
10191;SDS011;17580;50.850;4.504;2023-03-21T14:02:20;4.93;;;4.40;;
10191;SDS011;17580;50.850;4.504;2023-03-21T14:04:55;5.07;;;3.90;;
10191;SDS011;17580;50.850;4.504;2023-03-21T14:07:26;3.97;;;3.60;;
10191;SDS011;17580;50.850;4.504;2023-03-21T14:09:56;5.27;;;4.83;;
10191;SDS011;17580;50.850;4.504;2023-03-21T14:12:28;5.83;;;5.07;;
10191;SDS011;17580;50.850;4.504;2023-03-21T14:15:00;4.80;;;4.07;;
10191;SDS011;17580;50.850;4.504;2023-03-21T14:17:31;5.17;;;3.70;;
10191;SDS011;17580;50.850;4.504;2023-03-21T14:20:02;4.63;;;3.97;;
10191;SDS011;17580;50.850;4.504;2023-03-21T14:22:35;4.33;;;3.30;;
10191;SDS011;17580;50.850;4.504;2023-03-21T14:25:03;4.00;;;3.63;;
10191;SDS011;17580;50.850;4.504;2023-03-21T14:27:33;6.77;;;3.40;;
10191;SDS011;17580;50.850;4.504;2023-03-21T14:30:02;5.90;;;3.70;;
10191;SDS011;17580;50.850;4.504;2023-03-21T14:32:30;4.47;;;3.57;;
10191;SDS011;17580;50.850;4.504;2023-03-21T14:34:58;3.63;;;3.23;;
10191;SDS011;17580;50.850;4.504;2023-03-21T14:37:29;6.27;;;4.40;;
10191;SDS011;17580;50.850;4.504;2023-03-21T14:39:58;4.93;;;4.00;;
10191;SDS011;17580;50.850;4.504;2023-03-21T14:42:27;3.70;;;3.30;;
10191;SDS011;17580;50.850;4.504;2023-03-21T14:44:58;5.97;;;3.87;;
10191;SDS011;17580;50.850;4.504;2023-03-21T14:47:28;3.93;;;3.10;;
10191;SDS011;17580;50.850;4.504;2023-03-21T14:49:56;5.97;;;3.10;;
10191;SDS011;17580;50.850;4.504;2023-03-21T14:52:28;4.10;;;3.40;;
10191;SDS011;17580;50.850;4.504;2023-03-21T14:54:57;3.20;;;2.90;;
10191;SDS011;17580;50.850;4.504;2023-03-21T14:57:26;4.17;;;3.47;;
10191;SDS011;17580;50.850;4.504;2023-03-21T14:59:57;3.80;;;3.50;;
10191;SDS011;17580;50.850;4.504;2023-03-21T15:02:30;6.97;;;3.90;;
10191;SDS011;17580;50.850;4.504;2023-03-21T15:05:05;4.70;;;3.03;;
10191;SDS011;17580;50.850;4.504;2023-03-21T15:07:36;4.47;;;3.37;;
10191;SDS011;17580;50.850;4.504;2023-03-21T15:10:04;3.63;;;3.30;;
10191;SDS011;17580;50.850;4.504;2023-03-21T15:12:33;2.67;;;2.50;;
10191;SDS011;17580;50.850;4.504;2023-03-21T15:15:00;4.50;;;2.90;;
10191;SDS011;17580;50.850;4.504;2023-03-21T15:17:29;5.97;;;3.10;;
10191;SDS011;17580;50.850;4.504;2023-03-21T15:19:57;3.87;;;3.27;;